createdAt,value
2018-12-31T00:00:46.947Z,2.90
2018-12-31T00:03:14.575Z,2.90
2018-12-31T00:05:41.131Z,2.90
2018-12-31T00:08:19.475Z,2.90
2018-12-31T00:10:45.948Z,2.90
2018-12-31T00:13:12.289Z,2.90
2018-12-31T00:15:38.638Z,2.90
2018-12-31T00:18:04.897Z,2.90
2018-12-31T00:20:31.247Z,2.80
2018-12-31T00:22:57.585Z,2.90
2018-12-31T00:25:23.941Z,2.90
2018-12-31T00:27:50.510Z,2.90
2018-12-31T00:30:16.870Z,2.80
2018-12-31T00:32:43.247Z,2.80
2018-12-31T00:35:09.580Z,2.80
2018-12-31T00:37:36.241Z,2.80
2018-12-31T00:40:03.602Z,2.90
2018-12-31T00:42:30.230Z,2.90
2018-12-31T00:44:56.771Z,2.90
2018-12-31T00:47:25.585Z,2.90
2018-12-31T00:49:52.840Z,2.90
2018-12-31T00:52:20.248Z,2.90
2018-12-31T00:54:47.980Z,2.90
2018-12-31T00:57:15.375Z,2.90
2018-12-31T00:59:41.690Z,2.90
2018-12-31T01:02:07.960Z,2.90
2018-12-31T01:04:34.457Z,2.90
2018-12-31T01:07:00.722Z,2.90
2018-12-31T01:09:27.143Z,2.90
2018-12-31T01:11:59.980Z,2.90
2018-12-31T01:14:26.580Z,2.90
2018-12-31T01:16:53.219Z,2.90
2018-12-31T01:19:19.650Z,2.90
2018-12-31T01:21:47.082Z,2.90
2018-12-31T01:24:13.599Z,3.00
2018-12-31T01:26:40.391Z,3.00
2018-12-31T01:29:12.799Z,2.90
2018-12-31T01:31:39.531Z,2.90
2018-12-31T01:34:12.951Z,2.90
2018-12-31T01:36:39.324Z,2.90
2018-12-31T01:39:05.668Z,2.90
2018-12-31T01:41:32.096Z,2.90
2018-12-31T01:44:05.579Z,2.90
2018-12-31T01:46:31.915Z,2.90
2018-12-31T01:48:58.468Z,2.80
2018-12-31T01:51:24.720Z,2.90
2018-12-31T01:53:51.289Z,2.90
2018-12-31T01:56:17.608Z,2.80
2018-12-31T01:58:44.000Z,2.80
2018-12-31T02:01:12.338Z,2.80
2018-12-31T02:03:38.722Z,2.80
2018-12-31T02:06:04.968Z,2.80
2018-12-31T02:08:31.356Z,2.80
2018-12-31T02:10:57.597Z,2.80
2018-12-31T02:13:23.957Z,2.80
2018-12-31T02:15:51.428Z,2.80
2018-12-31T02:18:22.063Z,2.80
2018-12-31T02:20:49.422Z,2.80
2018-12-31T02:23:15.697Z,2.80
2018-12-31T02:26:02.232Z,2.80
2018-12-31T02:28:28.632Z,2.90
2018-12-31T02:30:58.110Z,2.80
2018-12-31T02:33:24.485Z,2.80
2018-12-31T02:35:50.872Z,2.80
2018-12-31T02:38:17.168Z,2.80
2018-12-31T02:40:43.549Z,2.80
2018-12-31T02:43:09.907Z,2.80
2018-12-31T02:45:36.203Z,2.80
2018-12-31T02:48:02.504Z,2.80
2018-12-31T02:50:29.889Z,2.80
2018-12-31T02:53:00.698Z,2.80
2018-12-31T02:55:29.107Z,2.80
2018-12-31T02:57:55.490Z,2.80
2018-12-31T03:00:22.243Z,2.80
2018-12-31T03:02:48.513Z,2.80
2018-12-31T03:05:15.109Z,2.80
2018-12-31T03:07:41.592Z,2.80
2018-12-31T03:10:08.144Z,2.90
2018-12-31T03:12:38.671Z,2.80
2018-12-31T03:15:05.659Z,2.90
2018-12-31T03:17:33.326Z,2.90
2018-12-31T03:20:03.720Z,2.90
2018-12-31T03:22:30.087Z,2.90
2018-12-31T03:24:56.721Z,2.90
2018-12-31T03:27:23.016Z,2.80
2018-12-31T03:29:51.663Z,2.80
2018-12-31T03:32:18.386Z,2.80
2018-12-31T03:34:44.735Z,2.80
2018-12-31T03:37:11.071Z,2.80
2018-12-31T03:39:46.125Z,2.80
2018-12-31T03:42:12.485Z,2.80
2018-12-31T03:44:39.984Z,2.80
2018-12-31T03:47:06.607Z,2.80
2018-12-31T03:49:33.918Z,2.90
2018-12-31T03:52:00.204Z,2.80
2018-12-31T03:54:27.625Z,2.80
2018-12-31T03:56:54.103Z,2.80
2018-12-31T03:59:20.349Z,2.80
2018-12-31T04:01:47.055Z,2.80
2018-12-31T04:04:13.601Z,2.90
2018-12-31T04:06:39.967Z,2.90
2018-12-31T04:09:06.260Z,2.90
2018-12-31T04:11:34.849Z,2.90
2018-12-31T04:14:01.106Z,2.90
2018-12-31T04:16:27.460Z,2.90
2018-12-31T04:18:58.788Z,2.90
2018-12-31T04:21:25.173Z,2.90
2018-12-31T04:23:51.770Z,2.90
2018-12-31T04:26:18.159Z,2.90
2018-12-31T04:28:44.439Z,2.90
2018-12-31T04:31:10.852Z,2.90
2018-12-31T04:33:40.405Z,2.90
2018-12-31T04:36:08.799Z,2.90
2018-12-31T04:38:35.131Z,2.90
2018-12-31T04:41:01.403Z,2.90
2018-12-31T04:43:27.769Z,2.90
2018-12-31T04:45:56.175Z,2.90
2018-12-31T04:48:22.521Z,2.90
2018-12-31T04:50:48.930Z,2.90
2018-12-31T04:53:15.501Z,2.90
2018-12-31T04:55:44.504Z,2.90
2018-12-31T04:58:11.071Z,2.90
2018-12-31T05:00:38.723Z,2.90
2018-12-31T05:03:05.072Z,3.00
2018-12-31T05:05:33.370Z,2.90
2018-12-31T05:07:59.741Z,2.90
2018-12-31T05:10:26.330Z,2.90
2018-12-31T05:13:12.078Z,3.00
2018-12-31T05:15:39.859Z,3.00
2018-12-31T05:18:06.447Z,3.00
2018-12-31T05:20:33.028Z,3.00
2018-12-31T05:22:59.271Z,3.00
2018-12-31T05:25:25.886Z,3.00
2018-12-31T05:27:52.434Z,3.00
2018-12-31T05:30:19.848Z,3.00
2018-12-31T05:32:46.183Z,3.00
2018-12-31T05:35:12.488Z,3.00
2018-12-31T05:37:52.080Z,3.00
2018-12-31T05:40:18.466Z,3.00
2018-12-31T05:42:44.876Z,3.00
2018-12-31T05:45:11.248Z,3.00
2018-12-31T05:47:37.524Z,3.00
2018-12-31T05:50:04.242Z,3.00
2018-12-31T05:52:30.618Z,3.00
2018-12-31T05:54:57.224Z,3.00
2018-12-31T05:57:23.591Z,3.00
2018-12-31T05:59:58.032Z,3.00
2018-12-31T06:02:26.422Z,3.10
2018-12-31T06:04:52.984Z,3.10
2018-12-31T06:07:19.342Z,3.10
2018-12-31T06:09:46.067Z,3.10
2018-12-31T06:12:12.430Z,3.10
2018-12-31T06:14:39.073Z,3.10
2018-12-31T06:17:05.427Z,3.10
2018-12-31T06:19:36.345Z,3.10
2018-12-31T06:22:02.590Z,3.10
2018-12-31T06:24:29.273Z,3.10
2018-12-31T06:26:55.644Z,3.10
2018-12-31T06:29:27.751Z,3.10
2018-12-31T06:32:02.978Z,3.10
2018-12-31T06:34:29.657Z,3.10
2018-12-31T06:36:56.304Z,3.20
2018-12-31T06:39:22.680Z,3.10
2018-12-31T06:41:49.035Z,3.10
2018-12-31T06:44:15.296Z,3.10
2018-12-31T06:46:41.936Z,3.10
2018-12-31T06:49:08.211Z,3.10
2018-12-31T06:51:34.571Z,3.10
2018-12-31T06:54:00.932Z,3.10
2018-12-31T06:56:27.294Z,3.10
2018-12-31T06:58:53.800Z,3.10
2018-12-31T07:01:20.179Z,3.20
2018-12-31T07:03:46.767Z,3.20
2018-12-31T07:06:13.039Z,3.20
2018-12-31T07:08:39.443Z,3.20
2018-12-31T07:11:05.723Z,3.20
2018-12-31T07:13:37.159Z,3.20
2018-12-31T07:16:03.598Z,3.20
2018-12-31T07:18:32.240Z,3.20
2018-12-31T07:20:59.665Z,3.20
2018-12-31T07:23:26.103Z,3.20
2018-12-31T07:25:52.464Z,3.20
2018-12-31T07:28:19.158Z,3.20
2018-12-31T07:30:45.430Z,3.20
2018-12-31T07:33:11.997Z,3.20
2018-12-31T07:35:40.703Z,3.20
2018-12-31T07:38:07.049Z,3.30
2018-12-31T07:40:35.695Z,3.20
2018-12-31T07:43:04.106Z,3.30
2018-12-31T07:45:30.587Z,3.30
2018-12-31T07:48:08.760Z,3.30
2018-12-31T07:50:35.456Z,3.20
2018-12-31T07:53:01.830Z,3.30
2018-12-31T07:55:28.164Z,3.20
2018-12-31T07:57:54.595Z,3.30
2018-12-31T08:00:21.034Z,3.30
2018-12-31T08:02:49.426Z,3.30
2018-12-31T08:05:15.743Z,3.30
2018-12-31T08:07:42.431Z,3.40
2018-12-31T08:10:08.900Z,3.40
2018-12-31T08:12:35.141Z,3.40
2018-12-31T08:15:02.050Z,3.40
2018-12-31T08:17:28.436Z,3.40
2018-12-31T08:19:54.947Z,3.40
2018-12-31T08:22:21.614Z,3.50
2018-12-31T08:24:47.859Z,3.50
2018-12-31T08:27:14.275Z,3.50
2018-12-31T08:29:40.643Z,3.60
2018-12-31T08:32:07.031Z,3.50
2018-12-31T08:34:33.492Z,3.60
2018-12-31T08:37:00.020Z,3.50
2018-12-31T08:39:26.389Z,3.60
2018-12-31T08:41:53.542Z,3.60
2018-12-31T08:44:19.935Z,3.70
2018-12-31T08:46:46.220Z,3.70
2018-12-31T08:49:12.555Z,3.70
2018-12-31T08:51:39.068Z,3.70
2018-12-31T08:54:05.471Z,3.70
2018-12-31T08:56:31.710Z,3.70
2018-12-31T08:58:58.092Z,3.80
2018-12-31T09:01:24.448Z,3.80
2018-12-31T09:03:50.751Z,3.80
2018-12-31T09:06:17.360Z,3.80
2018-12-31T09:08:44.007Z,3.80
2018-12-31T09:11:10.645Z,3.80
2018-12-31T09:13:36.902Z,3.90
2018-12-31T09:16:03.170Z,3.90
2018-12-31T09:18:29.434Z,3.80
2018-12-31T09:20:55.713Z,3.90
2018-12-31T09:23:22.067Z,3.90
2018-12-31T09:25:48.456Z,3.90
2018-12-31T09:28:15.478Z,3.90
2018-12-31T09:30:41.831Z,3.90
2018-12-31T09:33:08.361Z,4.00
2018-12-31T09:35:34.884Z,4.00
2018-12-31T09:38:01.210Z,4.00
2018-12-31T09:40:27.550Z,4.00
2018-12-31T09:42:53.889Z,4.00
2018-12-31T09:45:20.649Z,4.00
2018-12-31T09:47:47.080Z,4.10
2018-12-31T09:50:13.691Z,4.10
2018-12-31T09:52:40.241Z,4.10
2018-12-31T09:55:06.501Z,4.10
2018-12-31T09:57:34.010Z,4.10
2018-12-31T10:00:00.826Z,4.10
2018-12-31T10:02:27.187Z,4.10
2018-12-31T10:04:53.590Z,4.10
2018-12-31T10:07:19.947Z,4.10
2018-12-31T10:09:46.316Z,4.20
2018-12-31T10:12:12.656Z,4.20
2018-12-31T10:14:39.414Z,4.20
2018-12-31T10:17:05.911Z,4.20
2018-12-31T10:19:32.227Z,4.20
2018-12-31T10:21:58.864Z,4.20
2018-12-31T10:24:25.250Z,4.20
2018-12-31T10:26:51.518Z,4.30
2018-12-31T10:29:18.142Z,4.30
2018-12-31T10:31:44.504Z,4.30
2018-12-31T10:34:12.893Z,4.30
2018-12-31T10:36:39.255Z,4.30
2018-12-31T10:39:06.007Z,4.30
2018-12-31T10:41:32.311Z,4.40
2018-12-31T10:43:58.831Z,4.30
2018-12-31T10:46:25.107Z,4.30
2018-12-31T10:48:51.731Z,4.40
2018-12-31T10:51:18.342Z,4.30
2018-12-31T10:53:44.735Z,4.40
2018-12-31T10:56:11.267Z,4.40
2018-12-31T10:58:38.595Z,4.40
2018-12-31T11:01:04.850Z,4.40
2018-12-31T11:03:31.483Z,4.40
2018-12-31T11:05:57.768Z,4.40
2018-12-31T11:08:24.007Z,4.50
2018-12-31T11:10:50.469Z,4.50
2018-12-31T11:13:17.330Z,4.50
2018-12-31T11:15:43.818Z,4.50
2018-12-31T11:18:10.468Z,4.50
2018-12-31T11:20:36.962Z,4.60
2018-12-31T11:23:03.207Z,4.60
2018-12-31T11:25:29.478Z,4.60
2018-12-31T11:27:55.819Z,4.70
2018-12-31T11:30:22.227Z,4.70
2018-12-31T11:32:48.613Z,4.70
2018-12-31T11:35:15.039Z,4.70
2018-12-31T11:37:41.380Z,4.80
2018-12-31T11:40:07.743Z,4.80
2018-12-31T11:42:34.400Z,4.80
2018-12-31T11:45:00.869Z,4.80
2018-12-31T11:47:27.207Z,4.90
2018-12-31T11:49:53.641Z,4.90
2018-12-31T11:52:20.975Z,4.90
2018-12-31T11:54:47.312Z,4.90
2018-12-31T11:57:13.665Z,4.90
2018-12-31T11:59:40.300Z,4.90
2018-12-31T12:02:06.672Z,4.90
2018-12-31T12:04:33.107Z,4.90
2018-12-31T12:06:59.574Z,4.90
2018-12-31T12:09:25.829Z,5.00
2018-12-31T12:11:53.543Z,5.00
2018-12-31T12:14:25.791Z,5.00
2018-12-31T12:16:52.446Z,5.00
2018-12-31T12:19:18.777Z,5.00
2018-12-31T12:21:46.898Z,5.10
2018-12-31T12:24:13.288Z,5.10
2018-12-31T12:26:39.649Z,5.10
2018-12-31T12:29:05.996Z,5.20
2018-12-31T12:31:33.876Z,5.20
2018-12-31T12:34:00.250Z,5.20
2018-12-31T12:36:26.684Z,5.20
2018-12-31T12:38:53.064Z,5.30
2018-12-31T12:41:19.683Z,5.30
2018-12-31T12:43:46.027Z,5.30
2018-12-31T12:46:12.638Z,5.30
2018-12-31T12:48:40.411Z,5.40
2018-12-31T12:51:06.707Z,5.30
2018-12-31T12:53:33.156Z,5.30
2018-12-31T12:55:59.635Z,5.30
2018-12-31T12:58:26.255Z,5.30
2018-12-31T13:03:35.333Z,5.30
2018-12-31T13:06:01.680Z,5.30
2018-12-31T13:08:28.435Z,5.30
2018-12-31T13:10:54.908Z,5.30
2018-12-31T13:13:21.637Z,5.30
2018-12-31T13:15:48.004Z,5.30
2018-12-31T13:18:14.652Z,5.30
2018-12-31T13:20:41.081Z,5.30
2018-12-31T13:23:11.756Z,5.30
2018-12-31T13:25:38.684Z,5.40
2018-12-31T13:28:05.089Z,5.40
2018-12-31T13:30:33.292Z,5.40
2018-12-31T13:32:59.829Z,5.40
2018-12-31T13:35:26.215Z,5.40
2018-12-31T13:37:52.668Z,5.40
2018-12-31T13:40:19.304Z,5.40
2018-12-31T13:42:45.717Z,5.30
2018-12-31T13:45:12.072Z,5.30
2018-12-31T13:47:38.432Z,5.30
2018-12-31T13:50:04.879Z,5.30
2018-12-31T13:52:31.234Z,5.30
2018-12-31T13:54:59.887Z,5.30
2018-12-31T13:57:26.319Z,5.30
2018-12-31T13:59:53.737Z,5.20
2018-12-31T14:02:20.439Z,5.20
2018-12-31T14:04:48.979Z,5.20
2018-12-31T14:07:15.419Z,5.20
2018-12-31T14:09:44.082Z,5.20
2018-12-31T14:12:10.575Z,5.20
2018-12-31T14:14:40.100Z,5.20
2018-12-31T14:17:08.455Z,5.20
2018-12-31T14:19:35.261Z,5.20
2018-12-31T14:22:02.475Z,5.20
2018-12-31T14:24:30.230Z,5.20
2018-12-31T14:27:03.773Z,5.30
2018-12-31T14:29:31.764Z,5.20
2018-12-31T14:31:58.175Z,5.20
2018-12-31T14:34:24.864Z,5.20
2018-12-31T14:36:54.328Z,5.30
2018-12-31T14:39:20.848Z,5.30
2018-12-31T14:41:47.391Z,5.20
2018-12-31T14:44:15.755Z,5.20
2018-12-31T14:46:42.121Z,5.20
2018-12-31T14:49:13.259Z,5.20
2018-12-31T14:51:39.655Z,5.20
2018-12-31T14:54:06.221Z,5.20
2018-12-31T14:56:32.849Z,5.20
2018-12-31T14:58:59.361Z,5.10
2018-12-31T15:01:25.719Z,5.10
2018-12-31T15:03:54.031Z,5.10
2018-12-31T15:06:20.628Z,5.10
2018-12-31T15:08:46.997Z,5.10
2018-12-31T15:11:13.775Z,5.10
2018-12-31T15:13:40.514Z,5.10
2018-12-31T15:16:06.885Z,5.10
2018-12-31T15:18:33.608Z,5.10
2018-12-31T15:20:59.976Z,5.00
2018-12-31T15:23:26.319Z,5.00
2018-12-31T15:25:53.095Z,5.10
2018-12-31T15:28:19.741Z,5.00
2018-12-31T15:30:47.284Z,5.00
2018-12-31T15:33:13.667Z,5.00
2018-12-31T15:35:40.378Z,5.00
2018-12-31T15:38:06.803Z,5.00
2018-12-31T15:40:33.153Z,5.00
2018-12-31T15:42:59.567Z,5.00
2018-12-31T15:45:26.247Z,5.00
2018-12-31T15:47:52.871Z,5.00
2018-12-31T15:50:19.251Z,5.00
2018-12-31T15:52:45.624Z,5.00
2018-12-31T15:55:12.071Z,5.00
2018-12-31T15:57:38.701Z,5.00
2018-12-31T16:00:07.406Z,5.00
2018-12-31T16:02:34.119Z,5.00
2018-12-31T16:05:01.549Z,5.00
2018-12-31T16:07:27.992Z,5.00
2018-12-31T16:09:54.474Z,5.00
2018-12-31T16:12:21.199Z,5.00
2018-12-31T16:14:47.559Z,5.00
2018-12-31T16:17:14.151Z,5.00
2018-12-31T16:19:40.522Z,5.00
2018-12-31T16:22:07.248Z,4.90
2018-12-31T16:24:33.723Z,4.90
2018-12-31T16:27:00.076Z,4.90
2018-12-31T16:29:26.442Z,4.90
2018-12-31T16:31:53.147Z,4.90
2018-12-31T16:34:19.792Z,4.90
2018-12-31T16:36:46.184Z,4.90
2018-12-31T16:39:12.504Z,4.90
2018-12-31T16:41:39.927Z,4.90
2018-12-31T16:44:06.324Z,4.90
2018-12-31T16:46:33.004Z,4.90
2018-12-31T16:48:59.561Z,4.90
2018-12-31T16:51:25.985Z,4.90
2018-12-31T16:53:53.383Z,4.90
2018-12-31T16:56:20.104Z,4.90
2018-12-31T16:58:46.469Z,4.90
2018-12-31T17:01:12.835Z,4.90
2018-12-31T17:03:39.122Z,4.90
2018-12-31T17:06:05.519Z,4.90
2018-12-31T17:08:31.894Z,4.90
2018-12-31T17:10:58.343Z,4.90
2018-12-31T17:13:24.726Z,4.90
2018-12-31T17:15:51.079Z,4.90
2018-12-31T17:18:17.887Z,4.90
2018-12-31T17:20:50.053Z,4.90
2018-12-31T17:23:16.443Z,4.90
2018-12-31T17:25:42.895Z,4.90
2018-12-31T17:28:09.693Z,4.90
2018-12-31T17:30:36.081Z,4.90
2018-12-31T17:33:02.419Z,4.90
2018-12-31T17:35:29.083Z,4.90
2018-12-31T17:37:55.722Z,4.90
2018-12-31T17:40:22.196Z,4.90
2018-12-31T17:42:48.886Z,4.90
2018-12-31T17:45:22.761Z,4.90
2018-12-31T17:47:44.021Z,4.90
2018-12-31T17:50:10.423Z,4.90
2018-12-31T17:52:36.767Z,4.90
2018-12-31T17:55:03.732Z,4.90
2018-12-31T17:57:30.102Z,4.90
2018-12-31T17:59:56.436Z,4.90
2018-12-31T18:02:23.307Z,4.80
2018-12-31T18:04:49.644Z,4.90
2018-12-31T18:07:16.034Z,4.90
2018-12-31T18:09:42.577Z,4.90
2018-12-31T18:12:08.940Z,4.90
2018-12-31T18:14:35.296Z,4.90
2018-12-31T18:17:01.661Z,4.80
2018-12-31T18:19:28.032Z,4.80
2018-12-31T18:21:54.379Z,4.80
2018-12-31T18:24:20.931Z,4.80
2018-12-31T18:26:47.275Z,4.80
2018-12-31T18:29:13.651Z,4.80
2018-12-31T18:31:40.338Z,4.80
2018-12-31T18:34:06.706Z,4.80
2018-12-31T18:36:33.067Z,4.80
2018-12-31T18:38:59.430Z,4.80
2018-12-31T18:41:25.799Z,4.80
2018-12-31T18:43:52.164Z,4.80
2018-12-31T18:46:18.847Z,4.80
2018-12-31T18:48:45.702Z,4.80
2018-12-31T18:51:12.055Z,4.80
2018-12-31T18:53:39.714Z,4.80
2018-12-31T18:56:06.147Z,4.80
2018-12-31T18:58:32.505Z,4.80
2018-12-31T19:00:58.843Z,4.80
2018-12-31T19:03:25.503Z,4.80
2018-12-31T19:05:51.930Z,4.80
2018-12-31T19:08:18.264Z,4.70
2018-12-31T19:10:44.714Z,4.80
2018-12-31T19:13:12.078Z,4.80
2018-12-31T19:15:38.443Z,4.80
2018-12-31T19:18:04.927Z,4.80
2018-12-31T19:20:31.612Z,4.80
2018-12-31T19:22:57.963Z,4.70
2018-12-31T19:25:24.679Z,4.80
2018-12-31T19:27:51.037Z,4.70
2018-12-31T19:30:17.748Z,4.70
2018-12-31T19:32:44.395Z,4.70
2018-12-31T19:35:11.338Z,4.70
2018-12-31T19:37:37.862Z,4.70
2018-12-31T19:40:05.220Z,4.70
2018-12-31T19:42:31.547Z,4.70
2018-12-31T19:44:57.940Z,4.70
2018-12-31T19:47:24.267Z,4.70
2018-12-31T19:49:50.855Z,4.70
2018-12-31T19:52:17.452Z,4.70
2018-12-31T19:54:44.084Z,4.70
2018-12-31T19:57:10.712Z,4.70
2018-12-31T19:59:37.336Z,4.70
2018-12-31T20:02:03.672Z,4.70
2018-12-31T20:04:30.031Z,4.70
2018-12-31T20:07:01.145Z,4.70
2018-12-31T20:09:24.827Z,4.70
2018-12-31T20:11:51.333Z,4.70
2018-12-31T20:14:17.738Z,4.70
2018-12-31T20:16:44.088Z,4.70
2018-12-31T20:19:10.436Z,4.70
2018-12-31T20:21:36.803Z,4.70
2018-12-31T20:24:03.211Z,4.70
2018-12-31T20:26:29.970Z,4.70
2018-12-31T20:28:56.303Z,4.70
2018-12-31T20:31:22.707Z,4.70
2018-12-31T20:33:49.312Z,4.70
2018-12-31T20:36:16.006Z,4.70
2018-12-31T20:38:42.352Z,4.70
2018-12-31T20:41:08.731Z,4.70
2018-12-31T20:43:35.089Z,4.70
2018-12-31T20:46:01.849Z,4.70
2018-12-31T20:48:28.467Z,4.70
2018-12-31T20:50:54.833Z,4.70
2018-12-31T20:53:21.160Z,4.70
2018-12-31T20:55:47.786Z,4.70
2018-12-31T20:58:14.126Z,4.70
2018-12-31T21:00:40.399Z,4.70
2018-12-31T21:03:07.059Z,4.60
2018-12-31T21:05:33.458Z,4.60
2018-12-31T21:07:59.787Z,4.60
2018-12-31T21:10:26.919Z,4.70
2018-12-31T21:12:53.285Z,4.70
2018-12-31T21:15:19.933Z,4.70
2018-12-31T21:17:46.287Z,4.70
2018-12-31T21:20:12.646Z,4.70
2018-12-31T21:22:39.003Z,4.60
2018-12-31T21:25:05.600Z,4.60
2018-12-31T21:27:31.945Z,4.60
2018-12-31T21:29:58.483Z,4.60
2018-12-31T21:32:24.799Z,4.70
2018-12-31T21:34:51.165Z,4.70
2018-12-31T21:37:17.579Z,4.70
2018-12-31T21:39:44.004Z,4.70
2018-12-31T21:42:10.710Z,4.60
2018-12-31T21:44:37.047Z,4.60
2018-12-31T21:47:03.527Z,4.60
2018-12-31T21:49:29.859Z,4.60
2018-12-31T21:51:56.523Z,4.60
2018-12-31T21:54:23.012Z,4.60
2018-12-31T21:56:49.371Z,4.60
2018-12-31T21:59:16.028Z,4.60
2018-12-31T22:01:42.390Z,4.60
2018-12-31T22:04:08.727Z,4.60
2018-12-31T22:06:35.102Z,4.60
2018-12-31T22:09:01.469Z,4.60
2018-12-31T22:11:27.838Z,4.60
2018-12-31T22:13:54.744Z,4.60
2018-12-31T22:16:22.128Z,4.60
2018-12-31T22:18:48.750Z,4.60
2018-12-31T22:21:15.116Z,4.60
2018-12-31T22:23:41.524Z,4.60
2018-12-31T22:26:07.800Z,4.60
2018-12-31T22:28:34.432Z,4.60
2018-12-31T22:31:01.149Z,4.60
2018-12-31T22:33:27.814Z,4.60
2018-12-31T22:35:54.540Z,4.60
2018-12-31T22:38:21.276Z,4.60
2018-12-31T22:40:47.991Z,4.60
2018-12-31T22:43:14.352Z,4.60
2018-12-31T22:45:40.894Z,4.60
2018-12-31T22:48:07.272Z,4.60
2018-12-31T22:50:33.960Z,4.60
2018-12-31T22:53:00.503Z,4.60
2018-12-31T22:55:26.855Z,4.60
2018-12-31T22:57:53.498Z,4.60
2018-12-31T23:00:23.015Z,4.60
2018-12-31T23:02:49.286Z,4.60
2018-12-31T23:05:15.632Z,4.60
2018-12-31T23:07:42.291Z,4.60
2018-12-31T23:10:08.955Z,4.60
2018-12-31T23:12:35.314Z,4.60
2018-12-31T23:15:11.836Z,4.60
2018-12-31T23:17:38.459Z,4.60
2018-12-31T23:20:08.020Z,4.60
2018-12-31T23:22:34.992Z,4.60
2018-12-31T23:25:01.322Z,4.60
2018-12-31T23:27:27.872Z,4.60
2018-12-31T23:29:54.236Z,4.70
2018-12-31T23:32:20.743Z,4.60
2018-12-31T23:34:47.366Z,4.60
2018-12-31T23:37:13.947Z,4.60
2018-12-31T23:39:40.292Z,4.60
2018-12-31T23:42:10.071Z,4.60
2018-12-31T23:44:36.517Z,4.60
2018-12-31T23:47:03.471Z,4.60
2018-12-31T23:49:29.812Z,4.60
2018-12-31T23:51:56.179Z,4.60
2018-12-31T23:54:26.522Z,4.60
2018-12-31T23:56:53.174Z,4.70
2018-12-31T23:59:19.532Z,4.60
